sensor_id;sensor_type;location;lat;lon;timestamp;temperature;humidity
19385;DHT22;9828;54.122;17.974;2024-03-22T00:02:12;6.70;1.00
19385;DHT22;9828;54.122;17.974;2024-03-22T00:07:33;6.70;99.90
19385;DHT22;9828;54.122;17.974;2024-03-22T00:12:53;6.60;99.90
19385;DHT22;9828;54.122;17.974;2024-03-22T00:18:13;6.60;1.00
19385;DHT22;9828;54.122;17.974;2024-03-22T00:23:33;6.50;1.00
19385;DHT22;9828;54.122;17.974;2024-03-22T00:28:54;6.50;1.00
19385;DHT22;9828;54.122;17.974;2024-03-22T00:34:15;6.50;99.90
19385;DHT22;9828;54.122;17.974;2024-03-22T00:39:35;6.50;1.00
19385;DHT22;9828;54.122;17.974;2024-03-22T00:44:55;6.60;1.00
19385;DHT22;9828;54.122;17.974;2024-03-22T00:50:17;6.60;1.00
19385;DHT22;9828;54.122;17.974;2024-03-22T00:55:37;6.60;99.90
19385;DHT22;9828;54.122;17.974;2024-03-22T01:00:58;6.60;1.00
19385;DHT22;9828;54.122;17.974;2024-03-22T01:06:18;6.60;1.00
19385;DHT22;9828;54.122;17.974;2024-03-22T01:11:43;6.60;99.90
19385;DHT22;9828;54.122;17.974;2024-03-22T01:17:04;6.60;99.90
19385;DHT22;9828;54.122;17.974;2024-03-22T01:22:24;6.50;99.90
19385;DHT22;9828;54.122;17.974;2024-03-22T01:27:44;6.50;1.00
19385;DHT22;9828;54.122;17.974;2024-03-22T01:33:05;6.50;99.90
19385;DHT22;9828;54.122;17.974;2024-03-22T01:38:24;6.40;1.00
19385;DHT22;9828;54.122;17.974;2024-03-22T01:43:45;6.40;1.00
19385;DHT22;9828;54.122;17.974;2024-03-22T01:49:05;6.40;1.00
19385;DHT22;9828;54.122;17.974;2024-03-22T01:54:26;6.40;99.90
19385;DHT22;9828;54.122;17.974;2024-03-22T01:59:49;6.40;99.90
19385;DHT22;9828;54.122;17.974;2024-03-22T02:05:15;6.40;99.90
19385;DHT22;9828;54.122;17.974;2024-03-22T02:10:39;6.40;1.00
19385;DHT22;9828;54.122;17.974;2024-03-22T02:16:02;6.30;1.00
19385;DHT22;9828;54.122;17.974;2024-03-22T02:21:22;6.30;1.00
19385;DHT22;9828;54.122;17.974;2024-03-22T02:26:42;6.20;99.90
19385;DHT22;9828;54.122;17.974;2024-03-22T02:32:03;6.20;1.00
19385;DHT22;9828;54.122;17.974;2024-03-22T02:37:23;6.20;1.00
19385;DHT22;9828;54.122;17.974;2024-03-22T02:42:43;6.20;99.90
19385;DHT22;9828;54.122;17.974;2024-03-22T02:48:04;6.20;1.00
19385;DHT22;9828;54.122;17.974;2024-03-22T02:53:25;6.30;99.90
19385;DHT22;9828;54.122;17.974;2024-03-22T02:58:45;6.30;1.00
19385;DHT22;9828;54.122;17.974;2024-03-22T03:04:06;6.40;99.90
19385;DHT22;9828;54.122;17.974;2024-03-22T03:09:26;6.30;99.90
19385;DHT22;9828;54.122;17.974;2024-03-22T03:14:46;6.30;1.00
19385;DHT22;9828;54.122;17.974;2024-03-22T03:20:07;6.30;1.00
19385;DHT22;9828;54.122;17.974;2024-03-22T03:25:33;6.30;1.00
19385;DHT22;9828;54.122;17.974;2024-03-22T03:30:53;6.20;99.90
19385;DHT22;9828;54.122;17.974;2024-03-22T03:36:14;6.10;1.00
19385;DHT22;9828;54.122;17.974;2024-03-22T03:41:34;6.10;99.90
19385;DHT22;9828;54.122;17.974;2024-03-22T03:46:54;6.10;99.90
19385;DHT22;9828;54.122;17.974;2024-03-22T03:52:14;6.00;1.00
19385;DHT22;9828;54.122;17.974;2024-03-22T03:57:35;6.00;1.00
19385;DHT22;9828;54.122;17.974;2024-03-22T04:02:55;5.90;99.90
19385;DHT22;9828;54.122;17.974;2024-03-22T04:08:15;5.90;1.00
19385;DHT22;9828;54.122;17.974;2024-03-22T04:13:35;5.90;99.90
19385;DHT22;9828;54.122;17.974;2024-03-22T04:18:55;6.00;99.90
19385;DHT22;9828;54.122;17.974;2024-03-22T04:24:16;6.00;1.00
19385;DHT22;9828;54.122;17.974;2024-03-22T04:29:36;5.90;1.00
19385;DHT22;9828;54.122;17.974;2024-03-22T04:34:57;5.90;1.00
19385;DHT22;9828;54.122;17.974;2024-03-22T04:40:17;5.90;1.00
19385;DHT22;9828;54.122;17.974;2024-03-22T04:45:37;6.00;1.00
19385;DHT22;9828;54.122;17.974;2024-03-22T04:50:57;6.00;99.90
19385;DHT22;9828;54.122;17.974;2024-03-22T04:56:18;5.90;1.00
19385;DHT22;9828;54.122;17.974;2024-03-22T05:01:39;5.90;1.00
19385;DHT22;9828;54.122;17.974;2024-03-22T05:06:59;5.90;1.00
19385;DHT22;9828;54.122;17.974;2024-03-22T05:12:19;6.00;99.90
19385;DHT22;9828;54.122;17.974;2024-03-22T05:17:39;6.00;99.90
19385;DHT22;9828;54.122;17.974;2024-03-22T05:23:01;5.90;1.00
19385;DHT22;9828;54.122;17.974;2024-03-22T05:28:21;6.00;99.90
19385;DHT22;9828;54.122;17.974;2024-03-22T05:33:42;6.00;61.70
19385;DHT22;9828;54.122;17.974;2024-03-22T05:39:02;6.00;1.00
19385;DHT22;9828;54.122;17.974;2024-03-22T05:44:22;6.00;1.00
19385;DHT22;9828;54.122;17.974;2024-03-22T05:49:43;6.10;1.00
19385;DHT22;9828;54.122;17.974;2024-03-22T05:55:03;6.10;1.00
19385;DHT22;9828;54.122;17.974;2024-03-22T06:00:23;6.10;99.90
19385;DHT22;9828;54.122;17.974;2024-03-22T06:05:44;6.10;1.00
19385;DHT22;9828;54.122;17.974;2024-03-22T06:11:04;6.20;99.90
19385;DHT22;9828;54.122;17.974;2024-03-22T06:16:24;6.20;99.90
19385;DHT22;9828;54.122;17.974;2024-03-22T06:21:45;6.20;99.90
19385;DHT22;9828;54.122;17.974;2024-03-22T06:27:05;6.20;1.00
19385;DHT22;9828;54.122;17.974;2024-03-22T06:32:25;6.30;1.00
19385;DHT22;9828;54.122;17.974;2024-03-22T06:37:45;6.20;99.90
19385;DHT22;9828;54.122;17.974;2024-03-22T06:43:05;6.30;99.90
19385;DHT22;9828;54.122;17.974;2024-03-22T06:48:25;6.30;43.60
19385;DHT22;9828;54.122;17.974;2024-03-22T06:53:45;6.30;1.00
19385;DHT22;9828;54.122;17.974;2024-03-22T06:59:07;6.40;99.90
19385;DHT22;9828;54.122;17.974;2024-03-22T07:04:28;6.30;99.90
19385;DHT22;9828;54.122;17.974;2024-03-22T07:09:48;6.30;1.00
19385;DHT22;9828;54.122;17.974;2024-03-22T07:15:08;6.30;1.00
19385;DHT22;9828;54.122;17.974;2024-03-22T07:20:30;6.30;1.00
19385;DHT22;9828;54.122;17.974;2024-03-22T07:25:50;6.40;1.00
19385;DHT22;9828;54.122;17.974;2024-03-22T07:31:10;6.40;30.20
19385;DHT22;9828;54.122;17.974;2024-03-22T07:36:31;6.60;1.00
19385;DHT22;9828;54.122;17.974;2024-03-22T07:41:51;6.70;2.10
19385;DHT22;9828;54.122;17.974;2024-03-22T07:47:12;6.60;99.90
19385;DHT22;9828;54.122;17.974;2024-03-22T07:52:32;6.70;99.90
19385;DHT22;9828;54.122;17.974;2024-03-22T07:57:52;6.90;1.00
19385;DHT22;9828;54.122;17.974;2024-03-22T08:03:16;6.90;1.00
19385;DHT22;9828;54.122;17.974;2024-03-22T08:08:36;6.90;1.00
19385;DHT22;9828;54.122;17.974;2024-03-22T08:13:56;7.00;99.90
19385;DHT22;9828;54.122;17.974;2024-03-22T08:19:22;7.10;99.90
19385;DHT22;9828;54.122;17.974;2024-03-22T08:24:42;7.20;1.00
19385;DHT22;9828;54.122;17.974;2024-03-22T08:30:03;7.30;1.00
19385;DHT22;9828;54.122;17.974;2024-03-22T08:35:24;7.50;99.90
19385;DHT22;9828;54.122;17.974;2024-03-22T08:40:44;7.60;1.00
19385;DHT22;9828;54.122;17.974;2024-03-22T08:46:04;7.60;1.00
19385;DHT22;9828;54.122;17.974;2024-03-22T08:51:24;7.50;20.10
19385;DHT22;9828;54.122;17.974;2024-03-22T08:56:45;7.50;1.00
19385;DHT22;9828;54.122;17.974;2024-03-22T09:02:05;7.50;99.90
19385;DHT22;9828;54.122;17.974;2024-03-22T09:07:29;7.70;99.90
19385;DHT22;9828;54.122;17.974;2024-03-22T09:12:49;7.80;41.50
19385;DHT22;9828;54.122;17.974;2024-03-22T09:18:10;7.80;1.00
19385;DHT22;9828;54.122;17.974;2024-03-22T09:23:30;7.90;40.00
19385;DHT22;9828;54.122;17.974;2024-03-22T09:28:50;8.00;98.00
19385;DHT22;9828;54.122;17.974;2024-03-22T09:34:12;7.90;1.00
19385;DHT22;9828;54.122;17.974;2024-03-22T09:39:35;7.80;1.00
19385;DHT22;9828;54.122;17.974;2024-03-22T09:44:55;7.80;1.00
19385;DHT22;9828;54.122;17.974;2024-03-22T09:50:15;7.80;1.00
19385;DHT22;9828;54.122;17.974;2024-03-22T09:55:36;7.80;1.00
19385;DHT22;9828;54.122;17.974;2024-03-22T10:00:57;7.80;1.00
19385;DHT22;9828;54.122;17.974;2024-03-22T10:06:21;7.90;1.00
19385;DHT22;9828;54.122;17.974;2024-03-22T10:11:41;7.90;1.00
19385;DHT22;9828;54.122;17.974;2024-03-22T10:17:01;7.70;1.00
19385;DHT22;9828;54.122;17.974;2024-03-22T10:22:22;7.80;1.00
19385;DHT22;9828;54.122;17.974;2024-03-22T10:27:45;7.90;1.00
19385;DHT22;9828;54.122;17.974;2024-03-22T10:33:05;8.00;1.00
19385;DHT22;9828;54.122;17.974;2024-03-22T10:38:26;8.10;1.00
19385;DHT22;9828;54.122;17.974;2024-03-22T10:43:47;8.00;99.90
19385;DHT22;9828;54.122;17.974;2024-03-22T10:49:07;8.10;1.00
19385;DHT22;9828;54.122;17.974;2024-03-22T10:54:34;8.10;1.00
19385;DHT22;9828;54.122;17.974;2024-03-22T10:59:55;8.10;1.00
19385;DHT22;9828;54.122;17.974;2024-03-22T11:05:17;8.10;99.90
19385;DHT22;9828;54.122;17.974;2024-03-22T11:10:38;8.30;99.90
19385;DHT22;9828;54.122;17.974;2024-03-22T11:15:58;8.30;99.90
19385;DHT22;9828;54.122;17.974;2024-03-22T11:21:19;8.30;1.00
19385;DHT22;9828;54.122;17.974;2024-03-22T11:26:39;8.30;1.00
19385;DHT22;9828;54.122;17.974;2024-03-22T11:31:59;8.40;99.90
19385;DHT22;9828;54.122;17.974;2024-03-22T11:37:20;8.40;1.00
19385;DHT22;9828;54.122;17.974;2024-03-22T11:42:42;8.40;99.90
19385;DHT22;9828;54.122;17.974;2024-03-22T11:48:05;8.40;1.00
19385;DHT22;9828;54.122;17.974;2024-03-22T11:53:26;8.50;1.00
19385;DHT22;9828;54.122;17.974;2024-03-22T11:58:57;8.50;99.90
19385;DHT22;9828;54.122;17.974;2024-03-22T12:04:17;8.40;1.00
19385;DHT22;9828;54.122;17.974;2024-03-22T12:09:38;8.30;99.90
19385;DHT22;9828;54.122;17.974;2024-03-22T12:14:59;8.40;1.00
19385;DHT22;9828;54.122;17.974;2024-03-22T12:20:19;8.50;74.30
19385;DHT22;9828;54.122;17.974;2024-03-22T12:25:40;8.60;1.00
19385;DHT22;9828;54.122;17.974;2024-03-22T12:31:01;8.60;1.00
19385;DHT22;9828;54.122;17.974;2024-03-22T12:36:22;8.60;1.00
19385;DHT22;9828;54.122;17.974;2024-03-22T12:41:42;8.50;1.00
19385;DHT22;9828;54.122;17.974;2024-03-22T12:47:02;8.50;1.00
19385;DHT22;9828;54.122;17.974;2024-03-22T12:52:23;8.50;99.90
19385;DHT22;9828;54.122;17.974;2024-03-22T12:57:44;8.50;99.90
19385;DHT22;9828;54.122;17.974;2024-03-22T13:03:04;8.60;99.90
19385;DHT22;9828;54.122;17.974;2024-03-22T13:08:25;8.60;99.90
19385;DHT22;9828;54.122;17.974;2024-03-22T13:13:45;8.60;99.90
19385;DHT22;9828;54.122;17.974;2024-03-22T13:19:06;8.70;1.00
19385;DHT22;9828;54.122;17.974;2024-03-22T13:24:28;8.70;1.00
19385;DHT22;9828;54.122;17.974;2024-03-22T13:29:49;8.80;1.00
19385;DHT22;9828;54.122;17.974;2024-03-22T13:35:10;8.80;99.90
19385;DHT22;9828;54.122;17.974;2024-03-22T13:40:30;8.80;99.90
19385;DHT22;9828;54.122;17.974;2024-03-22T13:45:51;8.80;99.90
19385;DHT22;9828;54.122;17.974;2024-03-22T13:51:14;8.80;99.90
19385;DHT22;9828;54.122;17.974;2024-03-22T13:56:33;8.90;99.90
19385;DHT22;9828;54.122;17.974;2024-03-22T14:01:54;8.90;99.90
19385;DHT22;9828;54.122;17.974;2024-03-22T14:07:16;8.90;99.90
19385;DHT22;9828;54.122;17.974;2024-03-22T14:12:36;8.90;99.90
19385;DHT22;9828;54.122;17.974;2024-03-22T14:17:56;9.00;1.00
19385;DHT22;9828;54.122;17.974;2024-03-22T14:23:16;8.90;1.00
19385;DHT22;9828;54.122;17.974;2024-03-22T14:28:37;8.90;1.00
19385;DHT22;9828;54.122;17.974;2024-03-22T14:33:59;9.00;1.00
19385;DHT22;9828;54.122;17.974;2024-03-22T14:39:20;9.10;99.90
19385;DHT22;9828;54.122;17.974;2024-03-22T14:44:41;9.10;99.90
19385;DHT22;9828;54.122;17.974;2024-03-22T14:50:01;9.10;57.30
19385;DHT22;9828;54.122;17.974;2024-03-22T14:55:21;9.00;99.90
19385;DHT22;9828;54.122;17.974;2024-03-22T15:00:41;9.00;99.90
19385;DHT22;9828;54.122;17.974;2024-03-22T15:06:03;9.00;1.00
19385;DHT22;9828;54.122;17.974;2024-03-22T15:11:24;9.00;99.90
19385;DHT22;9828;54.122;17.974;2024-03-22T15:16:44;9.00;1.00
19385;DHT22;9828;54.122;17.974;2024-03-22T15:22:05;9.00;99.90
19385;DHT22;9828;54.122;17.974;2024-03-22T15:27:25;9.10;1.00
19385;DHT22;9828;54.122;17.974;2024-03-22T15:32:47;9.00;1.00
19385;DHT22;9828;54.122;17.974;2024-03-22T15:38:08;9.00;99.90
19385;DHT22;9828;54.122;17.974;2024-03-22T15:43:28;9.00;1.00
19385;DHT22;9828;54.122;17.974;2024-03-22T15:48:48;8.90;1.00
19385;DHT22;9828;54.122;17.974;2024-03-22T15:54:09;9.00;1.00
19385;DHT22;9828;54.122;17.974;2024-03-22T15:59:31;8.90;1.00
19385;DHT22;9828;54.122;17.974;2024-03-22T16:04:52;8.90;1.00
19385;DHT22;9828;54.122;17.974;2024-03-22T16:10:12;8.90;1.00
19385;DHT22;9828;54.122;17.974;2024-03-22T16:15:33;8.80;1.00
19385;DHT22;9828;54.122;17.974;2024-03-22T16:20:54;8.80;64.40
19385;DHT22;9828;54.122;17.974;2024-03-22T16:26:14;8.80;59.30
19385;DHT22;9828;54.122;17.974;2024-03-22T16:31:34;8.80;99.90
19385;DHT22;9828;54.122;17.974;2024-03-22T16:36:55;8.80;99.90
19385;DHT22;9828;54.122;17.974;2024-03-22T16:42:15;8.70;99.90
19385;DHT22;9828;54.122;17.974;2024-03-22T16:47:35;8.70;99.90
19385;DHT22;9828;54.122;17.974;2024-03-22T16:52:55;8.70;99.90
19385;DHT22;9828;54.122;17.974;2024-03-22T16:58:16;8.80;99.90
19385;DHT22;9828;54.122;17.974;2024-03-22T17:03:36;8.80;99.90
19385;DHT22;9828;54.122;17.974;2024-03-22T17:08:56;8.90;99.90
19385;DHT22;9828;54.122;17.974;2024-03-22T17:14:17;8.80;99.90
19385;DHT22;9828;54.122;17.974;2024-03-22T17:19:37;8.80;99.90
19385;DHT22;9828;54.122;17.974;2024-03-22T17:24:58;8.80;99.90
19385;DHT22;9828;54.122;17.974;2024-03-22T17:30:20;8.90;99.90
19385;DHT22;9828;54.122;17.974;2024-03-22T17:35:40;8.90;99.90
19385;DHT22;9828;54.122;17.974;2024-03-22T17:41:00;8.80;99.90
19385;DHT22;9828;54.122;17.974;2024-03-22T17:46:21;8.90;99.90
19385;DHT22;9828;54.122;17.974;2024-03-22T17:51:42;8.90;99.90
19385;DHT22;9828;54.122;17.974;2024-03-22T17:57:02;8.90;99.90
19385;DHT22;9828;54.122;17.974;2024-03-22T18:02:24;8.80;99.90
19385;DHT22;9828;54.122;17.974;2024-03-22T18:07:45;8.90;99.90
19385;DHT22;9828;54.122;17.974;2024-03-22T18:13:05;8.90;99.90
19385;DHT22;9828;54.122;17.974;2024-03-22T18:18:25;8.90;99.90
19385;DHT22;9828;54.122;17.974;2024-03-22T18:23:44;8.80;99.90
19385;DHT22;9828;54.122;17.974;2024-03-22T18:29:04;8.90;99.90
19385;DHT22;9828;54.122;17.974;2024-03-22T18:34:26;8.90;99.90
19385;DHT22;9828;54.122;17.974;2024-03-22T18:39:46;8.90;99.90
19385;DHT22;9828;54.122;17.974;2024-03-22T18:45:08;8.90;99.90
19385;DHT22;9828;54.122;17.974;2024-03-22T18:50:30;8.90;99.90
19385;DHT22;9828;54.122;17.974;2024-03-22T18:55:50;8.80;99.90
19385;DHT22;9828;54.122;17.974;2024-03-22T19:01:10;8.90;99.90
19385;DHT22;9828;54.122;17.974;2024-03-22T19:06:30;8.90;99.90
19385;DHT22;9828;54.122;17.974;2024-03-22T19:11:50;8.90;99.90
19385;DHT22;9828;54.122;17.974;2024-03-22T19:17:10;8.90;99.90
19385;DHT22;9828;54.122;17.974;2024-03-22T19:22:31;8.90;99.90
19385;DHT22;9828;54.122;17.974;2024-03-22T19:27:51;8.90;99.90
19385;DHT22;9828;54.122;17.974;2024-03-22T19:33:11;9.00;99.90
19385;DHT22;9828;54.122;17.974;2024-03-22T19:38:31;8.90;99.90
19385;DHT22;9828;54.122;17.974;2024-03-22T19:43:53;8.90;99.90
19385;DHT22;9828;54.122;17.974;2024-03-22T19:49:13;8.90;99.90
19385;DHT22;9828;54.122;17.974;2024-03-22T19:54:34;8.90;99.90
19385;DHT22;9828;54.122;17.974;2024-03-22T19:59:54;8.90;99.90
19385;DHT22;9828;54.122;17.974;2024-03-22T20:05:14;8.90;99.90
19385;DHT22;9828;54.122;17.974;2024-03-22T20:10:34;9.00;99.90
19385;DHT22;9828;54.122;17.974;2024-03-22T20:15:54;9.00;99.90
19385;DHT22;9828;54.122;17.974;2024-03-22T20:21:14;9.10;99.90
19385;DHT22;9828;54.122;17.974;2024-03-22T20:26:34;9.00;99.90
19385;DHT22;9828;54.122;17.974;2024-03-22T20:31:54;9.00;99.90
19385;DHT22;9828;54.122;17.974;2024-03-22T20:37:15;8.90;99.90
